sensor_id;sensor_type;location;lat;lon;timestamp;pressure;altitude;pressure_sealevel;temperature;humidity
61035;BME280;46916;40.564;-7.958;2023-12-28T00:00:19;98107.47;;;8.92;100.00
61035;BME280;46916;40.564;-7.958;2023-12-28T00:02:20;98103.06;;;8.93;100.00
61035;BME280;46916;40.564;-7.958;2023-12-28T00:04:20;98098.69;;;8.93;100.00
61035;BME280;46916;40.564;-7.958;2023-12-28T00:06:21;98095.88;;;8.97;100.00
61035;BME280;46916;40.564;-7.958;2023-12-28T00:08:22;98096.81;;;8.96;100.00
61035;BME280;46916;40.564;-7.958;2023-12-28T00:10:27;98090.63;;;8.97;100.00
61035;BME280;46916;40.564;-7.958;2023-12-28T00:12:28;98090.75;;;8.95;100.00
61035;BME280;46916;40.564;-7.958;2023-12-28T00:14:28;98086.47;;;8.94;100.00
61035;BME280;46916;40.564;-7.958;2023-12-28T00:16:31;98091.72;;;8.94;100.00
61035;BME280;46916;40.564;-7.958;2023-12-28T00:18:33;98092.31;;;8.98;100.00
61035;BME280;46916;40.564;-7.958;2023-12-28T00:20:33;98102.03;;;8.96;100.00
61035;BME280;46916;40.564;-7.958;2023-12-28T00:22:34;98087.41;;;8.93;100.00
61035;BME280;46916;40.564;-7.958;2023-12-28T00:24:37;98095.22;;;8.93;100.00
61035;BME280;46916;40.564;-7.958;2023-12-28T00:26:38;98088.34;;;8.92;100.00
61035;BME280;46916;40.564;-7.958;2023-12-28T00:28:40;98084.91;;;8.91;100.00
61035;BME280;46916;40.564;-7.958;2023-12-28T00:30:41;98087.41;;;8.93;100.00
61035;BME280;46916;40.564;-7.958;2023-12-28T00:32:42;98082.09;;;8.95;100.00
61035;BME280;46916;40.564;-7.958;2023-12-28T00:34:44;98071.63;;;8.95;100.00
61035;BME280;46916;40.564;-7.958;2023-12-28T00:36:45;98074.25;;;8.95;100.00
61035;BME280;46916;40.564;-7.958;2023-12-28T00:38:46;98081.25;;;8.94;100.00
61035;BME280;46916;40.564;-7.958;2023-12-28T00:40:46;98076.13;;;8.92;100.00
61035;BME280;46916;40.564;-7.958;2023-12-28T00:42:48;98076.22;;;8.91;100.00
61035;BME280;46916;40.564;-7.958;2023-12-28T00:44:48;98075.28;;;8.92;100.00
61035;BME280;46916;40.564;-7.958;2023-12-28T00:46:49;98079.56;;;8.93;100.00
61035;BME280;46916;40.564;-7.958;2023-12-28T00:48:50;98068.28;;;8.92;100.00
61035;BME280;46916;40.564;-7.958;2023-12-28T00:50:51;98070.88;;;8.92;100.00
61035;BME280;46916;40.564;-7.958;2023-12-28T00:52:53;98080.50;;;8.92;100.00
61035;BME280;46916;40.564;-7.958;2023-12-28T00:54:54;98082.09;;;8.95;100.00
61035;BME280;46916;40.564;-7.958;2023-12-28T00:56:54;98082.91;;;8.95;100.00
61035;BME280;46916;40.564;-7.958;2023-12-28T00:58:55;98081.25;;;8.94;100.00
61035;BME280;46916;40.564;-7.958;2023-12-28T01:00:56;98080.31;;;8.95;100.00
61035;BME280;46916;40.564;-7.958;2023-12-28T01:02:57;98069.84;;;8.95;100.00
61035;BME280;46916;40.564;-7.958;2023-12-28T01:04:57;98072.34;;;8.97;100.00
61035;BME280;46916;40.564;-7.958;2023-12-28T01:06:59;98075.28;;;8.92;100.00
61035;BME280;46916;40.564;-7.958;2023-12-28T01:09:02;98056.47;;;8.87;100.00
61035;BME280;46916;40.564;-7.958;2023-12-28T01:11:03;98052.91;;;8.88;100.00
61035;BME280;46916;40.564;-7.958;2023-12-28T01:13:04;98062.53;;;8.87;100.00
61035;BME280;46916;40.564;-7.958;2023-12-28T01:15:05;98069.63;;;8.85;100.00
61035;BME280;46916;40.564;-7.958;2023-12-28T01:17:06;98070.50;;;8.86;100.00
61035;BME280;46916;40.564;-7.958;2023-12-28T01:19:06;98060.88;;;8.86;100.00
61035;BME280;46916;40.564;-7.958;2023-12-28T01:21:07;98041.94;;;8.83;100.00
61035;BME280;46916;40.564;-7.958;2023-12-28T01:23:08;98050.63;;;8.83;100.00
61035;BME280;46916;40.564;-7.958;2023-12-28T01:25:09;98050.50;;;8.85;100.00
61035;BME280;46916;40.564;-7.958;2023-12-28T01:27:09;98057.19;;;8.89;100.00
61035;BME280;46916;40.564;-7.958;2023-12-28T01:29:10;98049.47;;;8.87;100.00
61035;BME280;46916;40.564;-7.958;2023-12-28T01:31:11;98058.34;;;8.85;100.00
61035;BME280;46916;40.564;-7.958;2023-12-28T01:33:12;98041.13;;;8.82;100.00
61035;BME280;46916;40.564;-7.958;2023-12-28T01:35:12;98038.38;;;8.84;100.00
61035;BME280;46916;40.564;-7.958;2023-12-28T01:37:14;98042.91;;;8.82;100.00
61035;BME280;46916;40.564;-7.958;2023-12-28T01:39:15;98046.53;;;8.79;100.00
61035;BME280;46916;40.564;-7.958;2023-12-28T01:41:18;98050.19;;;8.77;100.00
61035;BME280;46916;40.564;-7.958;2023-12-28T01:43:19;98052.06;;;8.75;100.00
61035;BME280;46916;40.564;-7.958;2023-12-28T01:45:19;98053.84;;;8.74;100.00
61035;BME280;46916;40.564;-7.958;2023-12-28T01:47:20;98053.84;;;8.74;100.00
61035;BME280;46916;40.564;-7.958;2023-12-28T01:49:21;98055.63;;;8.74;100.00
61035;BME280;46916;40.564;-7.958;2023-12-28T01:51:23;98051.25;;;8.74;100.00
61035;BME280;46916;40.564;-7.958;2023-12-28T01:53:25;98053.84;;;8.74;100.00
61035;BME280;46916;40.564;-7.958;2023-12-28T01:55:27;98029.41;;;8.75;100.00
61035;BME280;46916;40.564;-7.958;2023-12-28T01:57:28;98034.50;;;8.77;100.00
61035;BME280;46916;40.564;-7.958;2023-12-28T01:59:29;98024.91;;;8.77;100.00
61035;BME280;46916;40.564;-7.958;2023-12-28T02:01:31;98023.03;;;8.79;100.00
61035;BME280;46916;40.564;-7.958;2023-12-28T02:03:33;98021.13;;;8.81;100.00
61035;BME280;46916;40.564;-7.958;2023-12-28T02:05:34;98024.50;;;8.83;100.00
61035;BME280;46916;40.564;-7.958;2023-12-28T02:07:36;98015.72;;;8.84;100.00
61035;BME280;46916;40.564;-7.958;2023-12-28T02:09:37;98011.31;;;8.85;100.00
61035;BME280;46916;40.564;-7.958;2023-12-28T02:11:38;98020.94;;;8.84;100.00
61035;BME280;46916;40.564;-7.958;2023-12-28T02:13:38;98017.28;;;8.87;100.00
61035;BME280;46916;40.564;-7.958;2023-12-28T02:15:39;98022.41;;;8.88;100.00
61035;BME280;46916;40.564;-7.958;2023-12-28T02:18:00;98031.06;;;8.89;100.00
61035;BME280;46916;40.564;-7.958;2023-12-28T02:20:03;98036.22;;;8.90;100.00
61035;BME280;46916;40.564;-7.958;2023-12-28T02:22:08;98034.44;;;8.91;100.00
61035;BME280;46916;40.564;-7.958;2023-12-28T02:24:09;98045.84;;;8.90;100.00
61035;BME280;46916;40.564;-7.958;2023-12-28T02:26:09;98055.31;;;8.91;100.00
61035;BME280;46916;40.564;-7.958;2023-12-28T02:28:10;98063.16;;;8.91;100.00
61035;BME280;46916;40.564;-7.958;2023-12-28T02:30:11;98063.16;;;8.91;100.00
61035;BME280;46916;40.564;-7.958;2023-12-28T02:32:13;98065.78;;;8.91;100.00
61035;BME280;46916;40.564;-7.958;2023-12-28T02:34:25;98074.44;;;8.91;100.00
61035;BME280;46916;40.564;-7.958;2023-12-28T02:36:28;98078.84;;;8.91;100.00
61035;BME280;46916;40.564;-7.958;2023-12-28T02:38:30;98088.47;;;8.90;100.00
61035;BME280;46916;40.564;-7.958;2023-12-28T02:40:36;98089.50;;;8.88;100.00
61035;BME280;46916;40.564;-7.958;2023-12-28T02:42:37;98081.97;;;8.83;100.00
61035;BME280;46916;40.564;-7.958;2023-12-28T02:44:38;98083.09;;;8.79;100.00
61035;BME280;46916;40.564;-7.958;2023-12-28T02:46:39;98083.09;;;8.79;100.00
61035;BME280;46916;40.564;-7.958;2023-12-28T02:48:40;98082.34;;;8.77;100.00
61035;BME280;46916;40.564;-7.958;2023-12-28T02:50:41;98086.66;;;8.78;100.00
61035;BME280;46916;40.564;-7.958;2023-12-28T02:52:41;98080.59;;;8.78;100.00
61035;BME280;46916;40.564;-7.958;2023-12-28T02:54:42;98077.13;;;8.77;100.00
61035;BME280;46916;40.564;-7.958;2023-12-28T02:56:43;98083.31;;;8.76;100.00
61035;BME280;46916;40.564;-7.958;2023-12-28T02:58:44;98079.84;;;8.76;100.00
61035;BME280;46916;40.564;-7.958;2023-12-28T03:00:45;98078.91;;;8.77;100.00
61035;BME280;46916;40.564;-7.958;2023-12-28T03:02:46;98079.75;;;8.77;100.00
61035;BME280;46916;40.564;-7.958;2023-12-28T03:04:47;98079.84;;;8.76;100.00
61035;BME280;46916;40.564;-7.958;2023-12-28T03:06:47;98085.91;;;8.76;100.00
61035;BME280;46916;40.564;-7.958;2023-12-28T03:08:48;98088.84;;;8.72;100.00
61035;BME280;46916;40.564;-7.958;2023-12-28T03:10:49;98085.28;;;8.73;100.00
61035;BME280;46916;40.564;-7.958;2023-12-28T03:12:50;98070.22;;;8.63;100.00
61035;BME280;46916;40.564;-7.958;2023-12-28T03:14:51;98076.53;;;8.74;100.00
61035;BME280;46916;40.564;-7.958;2023-12-28T03:16:52;98080.06;;;8.73;100.00
61035;BME280;46916;40.564;-7.958;2023-12-28T03:18:53;98073.91;;;8.74;100.00
61035;BME280;46916;40.564;-7.958;2023-12-28T03:20:53;98069.84;;;8.70;100.00
61035;BME280;46916;40.564;-7.958;2023-12-28T03:22:55;98068.16;;;8.68;100.00
61035;BME280;46916;40.564;-7.958;2023-12-28T03:24:55;98072.66;;;8.66;100.00
61035;BME280;46916;40.564;-7.958;2023-12-28T03:26:56;98075.97;;;8.68;100.00
61035;BME280;46916;40.564;-7.958;2023-12-28T03:28:59;98074.19;;;8.69;100.00
61035;BME280;46916;40.564;-7.958;2023-12-28T03:31:02;98066.38;;;8.69;100.00
61035;BME280;46916;40.564;-7.958;2023-12-28T03:33:03;98061.88;;;8.71;100.00
61035;BME280;46916;40.564;-7.958;2023-12-28T03:35:04;98062.53;;;8.75;100.00
61035;BME280;46916;40.564;-7.958;2023-12-28T03:37:06;98064.19;;;8.76;100.00
61035;BME280;46916;40.564;-7.958;2023-12-28T03:39:08;98059.41;;;8.82;100.00
61035;BME280;46916;40.564;-7.958;2023-12-28T03:41:16;98064.00;;;8.79;100.00
61035;BME280;46916;40.564;-7.958;2023-12-28T03:43:17;98072.66;;;8.79;100.00
61035;BME280;46916;40.564;-7.958;2023-12-28T03:45:18;98065.66;;;8.80;100.00
61035;BME280;46916;40.564;-7.958;2023-12-28T03:47:20;98073.28;;;8.83;100.00
61035;BME280;46916;40.564;-7.958;2023-12-28T03:49:21;98074.75;;;8.87;100.00
61035;BME280;46916;40.564;-7.958;2023-12-28T03:51:21;98075.72;;;8.86;100.00
61035;BME280;46916;40.564;-7.958;2023-12-28T03:53:22;98067.75;;;8.87;100.00
61035;BME280;46916;40.564;-7.958;2023-12-28T03:55:23;98064.41;;;8.85;100.00
61035;BME280;46916;40.564;-7.958;2023-12-28T03:57:25;98063.56;;;8.85;100.00
61035;BME280;46916;40.564;-7.958;2023-12-28T03:59:26;98060.94;;;8.85;100.00
61035;BME280;46916;40.564;-7.958;2023-12-28T04:01:27;98066.59;;;8.79;100.00
61035;BME280;46916;40.564;-7.958;2023-12-28T04:03:28;98069.09;;;8.80;100.00
61035;BME280;46916;40.564;-7.958;2023-12-28T04:05:29;98061.47;;;8.77;100.00
61035;BME280;46916;40.564;-7.958;2023-12-28T04:07:31;98058.13;;;8.75;100.00
61035;BME280;46916;40.564;-7.958;2023-12-28T04:09:32;98058.97;;;8.76;100.00
61035;BME280;46916;40.564;-7.958;2023-12-28T04:11:32;98052.91;;;8.75;100.00
61035;BME280;46916;40.564;-7.958;2023-12-28T04:13:33;98049.47;;;8.75;100.00
61035;BME280;46916;40.564;-7.958;2023-12-28T04:15:34;98051.88;;;8.78;100.00
61035;BME280;46916;40.564;-7.958;2023-12-28T04:17:35;98049.47;;;8.75;100.00
61035;BME280;46916;40.564;-7.958;2023-12-28T04:19:35;98046.03;;;8.74;100.00
61035;BME280;46916;40.564;-7.958;2023-12-28T04:21:36;98053.53;;;8.79;100.00
61035;BME280;46916;40.564;-7.958;2023-12-28T04:23:39;98053.75;;;8.76;100.00
61035;BME280;46916;40.564;-7.958;2023-12-28T04:25:40;98061.59;;;8.76;100.00
61035;BME280;46916;40.564;-7.958;2023-12-28T04:27:41;98051.34;;;8.73;100.00
61035;BME280;46916;40.564;-7.958;2023-12-28T04:29:42;98048.00;;;8.71;100.00
61035;BME280;46916;40.564;-7.958;2023-12-28T04:31:43;98051.56;;;8.70;100.00
61035;BME280;46916;40.564;-7.958;2023-12-28T04:33:43;98041.13;;;8.70;100.00
61035;BME280;46916;40.564;-7.958;2023-12-28T04:35:45;98052.28;;;8.72;100.00
61035;BME280;46916;40.564;-7.958;2023-12-28T04:37:46;98038.38;;;8.71;100.00
61035;BME280;46916;40.564;-7.958;2023-12-28T04:39:47;98035.78;;;8.71;100.00
61035;BME280;46916;40.564;-7.958;2023-12-28T04:41:48;98018.13;;;8.75;100.00
61035;BME280;46916;40.564;-7.958;2023-12-28T04:43:48;98007.16;;;8.82;100.00
61035;BME280;46916;40.564;-7.958;2023-12-28T04:45:50;98015.00;;;8.82;100.00
61035;BME280;46916;40.564;-7.958;2023-12-28T04:47:51;98008.94;;;8.82;100.00
61035;BME280;46916;40.564;-7.958;2023-12-28T04:49:51;98004.63;;;8.81;100.00
61035;BME280;46916;40.564;-7.958;2023-12-28T04:51:52;98005.59;;;8.80;100.00
61035;BME280;46916;40.564;-7.958;2023-12-28T04:53:53;98020.53;;;8.78;100.00
61035;BME280;46916;40.564;-7.958;2023-12-28T04:55:55;98016.16;;;8.78;100.00
61035;BME280;46916;40.564;-7.958;2023-12-28T04:57:56;98018.75;;;8.78;100.00
61035;BME280;46916;40.564;-7.958;2023-12-28T04:59:57;98018.66;;;8.80;100.00
61035;BME280;46916;40.564;-7.958;2023-12-28T05:01:58;98009.97;;;8.79;100.00
61035;BME280;46916;40.564;-7.958;2023-12-28T05:03:58;98021.25;;;8.80;100.00
61035;BME280;46916;40.564;-7.958;2023-12-28T05:06:01;98016.03;;;8.80;100.00
61035;BME280;46916;40.564;-7.958;2023-12-28T05:08:03;98018.44;;;8.83;100.00
61035;BME280;46916;40.564;-7.958;2023-12-28T05:10:04;98018.44;;;8.83;100.00
61035;BME280;46916;40.564;-7.958;2023-12-28T05:12:05;98024.50;;;8.83;100.00
61035;BME280;46916;40.564;-7.958;2023-12-28T05:14:06;98027.94;;;8.84;100.00
61035;BME280;46916;40.564;-7.958;2023-12-28T05:16:07;98031.31;;;8.86;100.00
61035;BME280;46916;40.564;-7.958;2023-12-28T05:18:07;98032.13;;;8.86;100.00
61035;BME280;46916;40.564;-7.958;2023-12-28T05:20:09;98033.06;;;8.85;100.00
61035;BME280;46916;40.564;-7.958;2023-12-28T05:22:10;98029.84;;;8.82;100.00
61035;BME280;46916;40.564;-7.958;2023-12-28T05:24:11;98019.59;;;8.79;100.00
61035;BME280;46916;40.564;-7.958;2023-12-28T05:26:12;98019.06;;;8.74;100.00
61035;BME280;46916;40.564;-7.958;2023-12-28T05:28:13;98027.19;;;8.69;100.00
61035;BME280;46916;40.564;-7.958;2023-12-28T05:30:14;98031.59;;;8.68;100.00
61035;BME280;46916;40.564;-7.958;2023-12-28T05:32:14;98025.66;;;8.66;100.00
61035;BME280;46916;40.564;-7.958;2023-12-28T05:34:15;98029.19;;;8.65;100.00
61035;BME280;46916;40.564;-7.958;2023-12-28T05:36:16;98031.06;;;8.63;100.00
61035;BME280;46916;40.564;-7.958;2023-12-28T05:38:17;98032.97;;;8.61;100.00
61035;BME280;46916;40.564;-7.958;2023-12-28T05:40:18;98027.09;;;8.58;100.00
61035;BME280;46916;40.564;-7.958;2023-12-28T05:42:18;98027.31;;;8.55;100.00
61035;BME280;46916;40.564;-7.958;2023-12-28T05:44:19;98015.28;;;8.52;100.00
61035;BME280;46916;40.564;-7.958;2023-12-28T05:46:21;98030.31;;;8.49;100.00
61035;BME280;46916;40.564;-7.958;2023-12-28T05:48:22;98024.25;;;8.48;100.00
61035;BME280;46916;40.564;-7.958;2023-12-28T05:50:22;98017.38;;;8.47;100.00
61035;BME280;46916;40.564;-7.958;2023-12-28T05:52:23;98027.81;;;8.47;100.00
61035;BME280;46916;40.564;-7.958;2023-12-28T05:54:24;98025.00;;;8.50;100.00
61035;BME280;46916;40.564;-7.958;2023-12-28T05:56:26;98021.56;;;8.50;100.00
61035;BME280;46916;40.564;-7.958;2023-12-28T05:58:27;98022.19;;;8.53;100.00
61035;BME280;46916;40.564;-7.958;2023-12-28T06:00:27;98023.09;;;8.52;100.00
61035;BME280;46916;40.564;-7.958;2023-12-28T06:02:28;98016.22;;;8.51;100.00
61035;BME280;46916;40.564;-7.958;2023-12-28T06:04:29;98025.00;;;8.50;100.00
61035;BME280;46916;40.564;-7.958;2023-12-28T06:06:29;98031.16;;;8.49;100.00
61035;BME280;46916;40.564;-7.958;2023-12-28T06:08:30;98022.69;;;8.46;100.00
61035;BME280;46916;40.564;-7.958;2023-12-28T06:10:31;98025.41;;;8.44;100.00
61035;BME280;46916;40.564;-7.958;2023-12-28T06:12:32;98018.50;;;8.43;100.00
61035;BME280;46916;40.564;-7.958;2023-12-28T06:14:32;98026.53;;;8.40;100.00
61035;BME280;46916;40.564;-7.958;2023-12-28T06:16:33;98024.88;;;8.39;100.00
61035;BME280;46916;40.564;-7.958;2023-12-28T06:18:34;98034.47;;;8.38;100.00
61035;BME280;46916;40.564;-7.958;2023-12-28T06:20:35;98038.88;;;8.38;100.00
61035;BME280;46916;40.564;-7.958;2023-12-28T06:22:37;98043.97;;;8.39;100.00
61035;BME280;46916;40.564;-7.958;2023-12-28T06:24:40;98043.13;;;8.39;100.00
61035;BME280;46916;40.564;-7.958;2023-12-28T06:26:42;98040.53;;;8.39;100.00
61035;BME280;46916;40.564;-7.958;2023-12-28T06:28:43;98047.53;;;8.38;100.00
61035;BME280;46916;40.564;-7.958;2023-12-28T06:30:43;98049.31;;;8.38;100.00
61035;BME280;46916;40.564;-7.958;2023-12-28T06:32:44;98053.69;;;8.37;100.00
61035;BME280;46916;40.564;-7.958;2023-12-28T06:34:45;98057.97;;;8.38;100.00
61035;BME280;46916;40.564;-7.958;2023-12-28T06:36:45;98052.75;;;8.38;100.00
61035;BME280;46916;40.564;-7.958;2023-12-28T06:38:46;98061.41;;;8.39;100.00
61035;BME280;46916;40.564;-7.958;2023-12-28T06:40:47;98057.97;;;8.38;100.00
61035;BME280;46916;40.564;-7.958;2023-12-28T06:42:48;98051.91;;;8.38;100.00
61035;BME280;46916;40.564;-7.958;2023-12-28T06:44:49;98054.56;;;8.36;100.00
61035;BME280;46916;40.564;-7.958;2023-12-28T06:46:49;98065.97;;;8.35;100.00
61035;BME280;46916;40.564;-7.958;2023-12-28T06:48:50;98065.13;;;8.35;100.00
61035;BME280;46916;40.564;-7.958;2023-12-28T06:50:51;98066.06;;;8.34;100.00
61035;BME280;46916;40.564;-7.958;2023-12-28T06:52:52;98075.75;;;8.32;100.00
61035;BME280;46916;40.564;-7.958;2023-12-28T06:54:52;98077.47;;;8.33;100.00
61035;BME280;46916;40.564;-7.958;2023-12-28T06:56:53;98075.75;;;8.32;100.00
61035;BME280;46916;40.564;-7.958;2023-12-28T06:58:54;98077.53;;;8.31;100.00
61035;BME280;46916;40.564;-7.958;2023-12-28T07:00:55;98077.53;;;8.31;100.00
61035;BME280;46916;40.564;-7.958;2023-12-28T07:02:57;98085.47;;;8.30;100.00
61035;BME280;46916;40.564;-7.958;2023-12-28T07:04:58;98082.75;;;8.31;100.00
61035;BME280;46916;40.564;-7.958;2023-12-28T07:06:58;98079.31;;;8.31;100.00
61035;BME280;46916;40.564;-7.958;2023-12-28T07:08:59;98087.97;;;8.31;100.00
61035;BME280;46916;40.564;-7.958;2023-12-28T07:11:00;98100.06;;;8.32;100.00
61035;BME280;46916;40.564;-7.958;2023-12-28T07:13:01;98098.34;;;8.33;100.00
61035;BME280;46916;40.564;-7.958;2023-12-28T07:15:01;98101.84;;;8.32;100.00
61035;BME280;46916;40.564;-7.958;2023-12-28T07:17:02;98107.91;;;8.32;100.00
61035;BME280;46916;40.564;-7.958;2023-12-28T07:19:03;98104.47;;;8.32;100.00
61035;BME280;46916;40.564;-7.958;2023-12-28T07:21:05;98113.25;;;8.31;100.00
61035;BME280;46916;40.564;-7.958;2023-12-28T07:23:09;98118.47;;;8.31;100.00
61035;BME280;46916;40.564;-7.958;2023-12-28T07:25:10;98114.91;;;8.32;100.00
61035;BME280;46916;40.564;-7.958;2023-12-28T07:27:11;98118.34;;;8.32;100.00
61035;BME280;46916;40.564;-7.958;2023-12-28T07:29:12;98110.44;;;8.34;100.00
61035;BME280;46916;40.564;-7.958;2023-12-28T07:31:22;98110.44;;;8.34;100.00
61035;BME280;46916;40.564;-7.958;2023-12-28T07:33:23;98110.44;;;8.34;100.00
61035;BME280;46916;40.564;-7.958;2023-12-28T07:35:24;98110.44;;;8.34;100.00
61035;BME280;46916;40.564;-7.958;2023-12-28T07:37:25;98098.34;;;8.33;100.00
61035;BME280;46916;40.564;-7.958;2023-12-28T07:39:26;98100.94;;;8.33;100.00
61035;BME280;46916;40.564;-7.958;2023-12-28T07:41:26;98103.44;;;8.34;100.00
61035;BME280;46916;40.564;-7.958;2023-12-28T07:43:27;98100.94;;;8.33;100.00
61035;BME280;46916;40.564;-7.958;2023-12-28T07:45:29;98094.88;;;8.32;100.00
61035;BME280;46916;40.564;-7.958;2023-12-28T07:47:29;98101.66;;;8.35;100.00
61035;BME280;46916;40.564;-7.958;2023-12-28T07:49:30;98094.78;;;8.34;100.00
61035;BME280;46916;40.564;-7.958;2023-12-28T07:51:32;98097.47;;;8.32;100.00
61035;BME280;46916;40.564;-7.958;2023-12-28T07:53:32;98108.78;;;8.33;100.00
61035;BME280;46916;40.564;-7.958;2023-12-28T07:55:33;98117.50;;;8.32;100.00
61035;BME280;46916;40.564;-7.958;2023-12-28T07:57:34;98120.97;;;8.32;100.00
61035;BME280;46916;40.564;-7.958;2023-12-28T07:59:35;98125.34;;;8.32;100.00
61035;BME280;46916;40.564;-7.958;2023-12-28T08:01:36;98124.50;;;8.31;100.00
61035;BME280;46916;40.564;-7.958;2023-12-28T08:03:37;98127.97;;;8.32;100.00
61035;BME280;46916;40.564;-7.958;2023-12-28T08:05:37;98136.63;;;8.32;100.00
61035;BME280;46916;40.564;-7.958;2023-12-28T08:07:38;98140.09;;;8.33;100.00
61035;BME280;46916;40.564;-7.958;2023-12-28T08:09:39;98140.81;;;8.35;100.00
61035;BME280;46916;40.564;-7.958;2023-12-28T08:11:39;98146.03;;;8.35;100.00
61035;BME280;46916;40.564;-7.958;2023-12-28T08:13:40;98141.66;;;8.35;100.00
61035;BME280;46916;40.564;-7.958;2023-12-28T08:15:41;98149.44;;;8.37;100.00
61035;BME280;46916;40.564;-7.958;2023-12-28T08:17:42;98158.09;;;8.37;100.00
61035;BME280;46916;40.564;-7.958;2023-12-28T08:19:43;98151.16;;;8.36;100.00
61035;BME280;46916;40.564;-7.958;2023-12-28T08:21:44;98152.88;;;8.37;100.00
61035;BME280;46916;40.564;-7.958;2023-12-28T08:23:45;98168.44;;;8.39;100.00
61035;BME280;46916;40.564;-7.958;2023-12-28T08:25:45;98153.59;;;8.39;100.00
61035;BME280;46916;40.564;-7.958;2023-12-28T08:27:46;98157.88;;;8.40;100.00
61035;BME280;46916;40.564;-7.958;2023-12-28T08:29:47;98163.97;;;8.41;100.00
61035;BME280;46916;40.564;-7.958;2023-12-28T08:31:47;98166.47;;;8.42;100.00
61035;BME280;46916;40.564;-7.958;2023-12-28T08:33:48;98155.06;;;8.43;100.00
61035;BME280;46916;40.564;-7.958;2023-12-28T08:35:49;98155.06;;;8.43;100.00
61035;BME280;46916;40.564;-7.958;2023-12-28T08:37:49;98154.25;;;8.43;100.00
61035;BME280;46916;40.564;-7.958;2023-12-28T08:39:50;98154.13;;;8.44;100.00
61035;BME280;46916;40.564;-7.958;2023-12-28T08:41:51;98152.28;;;8.47;100.00
61035;BME280;46916;40.564;-7.958;2023-12-28T08:43:52;98149.66;;;8.47;100.00
61035;BME280;46916;40.564;-7.958;2023-12-28T08:45:54;98156.56;;;8.48;100.00
61035;BME280;46916;40.564;-7.958;2023-12-28T08:47:55;98156.47;;;8.49;100.00
61035;BME280;46916;40.564;-7.958;2023-12-28T08:49:56;98149.56;;;8.48;100.00
61035;BME280;46916;40.564;-7.958;2023-12-28T08:51:57;98146.22;;;8.46;100.00
61035;BME280;46916;40.564;-7.958;2023-12-28T08:53:57;98152.28;;;8.47;100.00
61035;BME280;46916;40.564;-7.958;2023-12-28T08:55:58;98145.28;;;8.47;100.00
61035;BME280;46916;40.564;-7.958;2023-12-28T08:57:59;98153.88;;;8.49;100.00
61035;BME280;46916;40.564;-7.958;2023-12-28T08:59:59;98159.09;;;8.49;100.00
61035;BME280;46916;40.564;-7.958;2023-12-28T09:02:00;98156.47;;;8.49;100.00
61035;BME280;46916;40.564;-7.958;2023-12-28T09:04:02;98157.31;;;8.50;100.00
61035;BME280;46916;40.564;-7.958;2023-12-28T09:06:02;98160.66;;;8.52;100.00
61035;BME280;46916;40.564;-7.958;2023-12-28T09:08:03;98156.25;;;8.52;100.00
61035;BME280;46916;40.564;-7.958;2023-12-28T09:10:04;98159.63;;;8.54;100.00
61035;BME280;46916;40.564;-7.958;2023-12-28T09:12:05;98171.72;;;8.55;100.00
61035;BME280;46916;40.564;-7.958;2023-12-28T09:14:06;98159.50;;;8.56;100.00
61035;BME280;46916;40.564;-7.958;2023-12-28T09:16:09;98169.56;;;8.62;100.00
61035;BME280;46916;40.564;-7.958;2023-12-28T09:18:10;98173.84;;;8.63;100.00
61035;BME280;46916;40.564;-7.958;2023-12-28T09:20:11;98181.78;;;8.61;100.00
61035;BME280;46916;40.564;-7.958;2023-12-28T09:22:12;98175.63;;;8.62;100.00
61035;BME280;46916;40.564;-7.958;2023-12-28T09:24:13;98178.97;;;8.64;100.00
61035;BME280;46916;40.564;-7.958;2023-12-28T09:26:15;98184.09;;;8.66;100.00
61035;BME280;46916;40.564;-7.958;2023-12-28T09:28:15;98178.88;;;8.66;100.00
61035;BME280;46916;40.564;-7.958;2023-12-28T09:30:17;98187.44;;;8.68;100.00
61035;BME280;46916;40.564;-7.958;2023-12-28T09:32:18;98182.97;;;8.70;100.00
61035;BME280;46916;40.564;-7.958;2023-12-28T09:34:19;98181.00;;;8.74;100.00
61035;BME280;46916;40.564;-7.958;2023-12-28T09:36:19;98176.50;;;8.76;100.00
61035;BME280;46916;40.564;-7.958;2023-12-28T09:38:20;98184.13;;;8.79;100.00
61035;BME280;46916;40.564;-7.958;2023-12-28T09:40:22;98184.03;;;8.80;100.00
61035;BME280;46916;40.564;-7.958;2023-12-28T09:42:30;98184.78;;;8.82;100.00
61035;BME280;46916;40.564;-7.958;2023-12-28T09:44:33;98195.13;;;8.84;100.00
61035;BME280;46916;40.564;-7.958;2023-12-28T09:46:37;98199.41;;;8.85;100.00
61035;BME280;46916;40.564;-7.958;2023-12-28T09:48:39;98203.47;;;8.89;100.00
61035;BME280;46916;40.564;-7.958;2023-12-28T09:50:40;98202.56;;;8.90;100.00
61035;BME280;46916;40.564;-7.958;2023-12-28T09:52:41;98197.22;;;8.91;100.00
61035;BME280;46916;40.564;-7.958;2023-12-28T09:54:42;98196.22;;;8.94;100.00
61035;BME280;46916;40.564;-7.958;2023-12-28T09:56:44;98205.72;;;8.95;100.00
61035;BME280;46916;40.564;-7.958;2023-12-28T09:58:48;98194.19;;;8.98;100.00
61035;BME280;46916;40.564;-7.958;2023-12-28T10:00:51;98203.63;;;9.00;100.00
61035;BME280;46916;40.564;-7.958;2023-12-28T10:02:52;98199.97;;;9.03;100.00
61035;BME280;46916;40.564;-7.958;2023-12-28T10:04:53;98204.16;;;9.05;100.00
61035;BME280;46916;40.564;-7.958;2023-12-28T10:06:53;98214.41;;;9.08;100.00
61035;BME280;46916;40.564;-7.958;2023-12-28T10:08:54;98211.69;;;9.10;100.00
61035;BME280;46916;40.564;-7.958;2023-12-28T10:11:02;98213.16;;;9.14;100.00
61035;BME280;46916;40.564;-7.958;2023-12-28T10:13:03;98211.28;;;9.16;100.00
61035;BME280;46916;40.564;-7.958;2023-12-28T10:15:05;98205.94;;;9.17;100.00
61035;BME280;46916;40.564;-7.958;2023-12-28T10:17:06;98196.88;;;9.23;100.00
61035;BME280;46916;40.564;-7.958;2023-12-28T10:19:06;98204.28;;;9.29;100.00
61035;BME280;46916;40.564;-7.958;2023-12-28T10:21:07;98202.84;;;9.38;100.00
61035;BME280;46916;40.564;-7.958;2023-12-28T10:23:08;98206.09;;;9.54;100.00
61035;BME280;46916;40.564;-7.958;2023-12-28T10:25:11;98208.19;;;9.75;100.00
61035;BME280;46916;40.564;-7.958;2023-12-28T10:27:15;98207.63;;;9.95;100.00
61035;BME280;46916;40.564;-7.958;2023-12-28T10:29:16;98202.78;;;10.14;100.00
61035;BME280;46916;40.564;-7.958;2023-12-28T10:31:16;98200.78;;;10.31;100.00
61035;BME280;46916;40.564;-7.958;2023-12-28T10:33:17;98201.69;;;10.43;100.00